createdAt,value
2018-03-22T00:00:08.238Z,99.99
2018-03-22T00:01:08.102Z,99.99
2018-03-22T00:02:07.967Z,99.99
2018-03-22T00:03:07.827Z,99.99
2018-03-22T00:04:07.694Z,99.99
2018-03-22T00:05:07.553Z,99.99
2018-03-22T00:06:07.416Z,99.99
2018-03-22T00:07:07.281Z,99.99
2018-03-22T00:08:07.148Z,99.99
2018-03-22T00:09:07.008Z,99.99
2018-03-22T00:10:06.870Z,99.99
2018-03-22T00:11:06.735Z,99.99
2018-03-22T00:12:06.597Z,99.99
2018-03-22T00:13:06.460Z,99.99
2018-03-22T00:14:06.324Z,99.99
2018-03-22T00:15:06.188Z,99.99
2018-03-22T00:16:06.051Z,99.99
2018-03-22T00:17:05.914Z,99.99
2018-03-22T00:18:05.778Z,99.99
2018-03-22T00:19:05.641Z,99.99
2018-03-22T00:20:05.505Z,99.99
2018-03-22T00:21:05.370Z,99.99
2018-03-22T00:22:05.230Z,99.99
2018-03-22T00:23:05.095Z,99.99
2018-03-22T00:24:04.960Z,99.99
2018-03-22T00:25:04.826Z,99.99
2018-03-22T00:26:04.683Z,99.99
2018-03-22T00:27:04.548Z,99.99
2018-03-22T00:28:04.412Z,99.99
2018-03-22T00:29:04.275Z,99.99
2018-03-22T00:30:04.140Z,99.99
2018-03-22T00:31:04.004Z,99.99
2018-03-22T00:32:03.863Z,99.99
2018-03-22T00:33:03.732Z,99.99
2018-03-22T00:34:03.590Z,99.99
2018-03-22T00:35:03.459Z,99.99
2018-03-22T00:36:03.316Z,99.99
2018-03-22T00:37:03.181Z,99.99
2018-03-22T00:38:03.045Z,99.99
2018-03-22T00:39:02.906Z,99.99
2018-03-22T00:40:02.774Z,99.99
2018-03-22T00:41:02.633Z,99.99
2018-03-22T00:42:02.500Z,99.99
2018-03-22T00:43:02.360Z,99.99
2018-03-22T00:44:02.220Z,99.99
2018-03-22T00:45:02.086Z,99.99
2018-03-22T00:46:01.947Z,99.99
2018-03-22T00:47:01.811Z,99.99
2018-03-22T00:48:01.674Z,99.99
2018-03-22T00:49:01.540Z,99.99
2018-03-22T00:50:01.399Z,99.99
2018-03-22T00:51:01.263Z,99.99
2018-03-22T00:52:01.124Z,99.99
2018-03-22T00:53:00.993Z,99.99
2018-03-22T00:54:00.852Z,99.99
2018-03-22T00:55:00.712Z,99.99
2018-03-22T00:56:00.578Z,99.99
2018-03-22T00:57:00.449Z,99.99
2018-03-22T00:58:00.306Z,99.99
2018-03-22T00:59:00.164Z,99.99
2018-03-22T01:00:00.027Z,99.99
2018-03-22T01:00:59.888Z,99.99
2018-03-22T01:01:59.754Z,99.99
2018-03-22T01:02:59.615Z,99.99
2018-03-22T01:03:59.478Z,99.99
2018-03-22T01:04:59.338Z,99.99
2018-03-22T01:05:59.202Z,99.99
2018-03-22T01:06:59.064Z,99.99
2018-03-22T01:07:58.932Z,99.99
2018-03-22T01:08:58.792Z,99.99
2018-03-22T01:09:58.651Z,99.99
2018-03-22T01:10:58.516Z,99.99
2018-03-22T01:11:58.378Z,99.99
2018-03-22T01:12:58.241Z,99.99
2018-03-22T01:13:58.103Z,99.99
2018-03-22T01:14:57.969Z,99.99
2018-03-22T01:15:57.827Z,99.99
2018-03-22T01:16:57.697Z,99.99
2018-03-22T01:17:57.571Z,99.99
2018-03-22T01:18:57.418Z,99.99
2018-03-22T01:19:57.277Z,99.99
2018-03-22T01:20:57.141Z,99.99
2018-03-22T01:21:57.004Z,99.99
2018-03-22T01:22:56.865Z,99.99
2018-03-22T01:23:56.732Z,99.99
2018-03-22T01:24:56.589Z,99.99
2018-03-22T01:25:56.455Z,99.99
2018-03-22T01:26:56.317Z,99.99
2018-03-22T01:27:56.177Z,99.99
2018-03-22T01:28:56.038Z,99.99
2018-03-22T01:29:55.900Z,99.99
2018-03-22T01:30:55.767Z,99.99
2018-03-22T01:31:55.624Z,99.99
2018-03-22T01:32:55.484Z,99.99
2018-03-22T01:33:55.350Z,99.99
2018-03-22T01:34:55.214Z,99.99
2018-03-22T01:35:55.076Z,99.99
2018-03-22T01:36:54.932Z,99.99
2018-03-22T01:37:54.796Z,99.99
2018-03-22T01:38:54.657Z,99.99
2018-03-22T01:39:54.525Z,99.99
2018-03-22T01:40:54.379Z,99.99
2018-03-22T01:41:54.242Z,99.99
2018-03-22T01:42:54.102Z,99.99
2018-03-22T01:43:53.965Z,99.99
2018-03-22T01:44:53.824Z,99.99
2018-03-22T01:45:53.685Z,99.99
2018-03-22T01:46:53.545Z,99.99
2018-03-22T01:47:53.407Z,99.99
2018-03-22T01:48:53.271Z,99.99
2018-03-22T01:49:53.129Z,99.99
2018-03-22T01:50:52.996Z,99.99
2018-03-22T01:51:52.854Z,99.99
2018-03-22T01:52:52.714Z,99.99
2018-03-22T01:53:52.574Z,99.99
2018-03-22T01:54:52.433Z,99.99
2018-03-22T01:55:52.297Z,99.99
2018-03-22T01:56:52.156Z,99.99
2018-03-22T01:57:52.019Z,99.99
2018-03-22T01:58:51.878Z,99.99
2018-03-22T01:59:51.742Z,99.99
2018-03-22T02:00:51.598Z,99.99
2018-03-22T02:01:51.470Z,99.99
2018-03-22T02:02:51.320Z,99.99
2018-03-22T02:03:51.183Z,99.99
2018-03-22T02:04:51.040Z,99.99
2018-03-22T02:05:50.901Z,99.99
2018-03-22T02:06:50.767Z,99.99
2018-03-22T02:07:50.623Z,99.99
2018-03-22T02:08:50.481Z,99.99
2018-03-22T02:09:50.344Z,99.99
2018-03-22T02:10:50.206Z,99.99
2018-03-22T02:11:50.066Z,99.99
2018-03-22T02:12:49.926Z,99.99
2018-03-22T02:13:49.785Z,99.99
2018-03-22T02:14:49.644Z,99.99
2018-03-22T02:15:49.506Z,99.99
2018-03-22T02:16:49.365Z,99.99
2018-03-22T02:17:49.229Z,99.99
2018-03-22T02:18:49.090Z,99.99
2018-03-22T02:19:48.946Z,99.99
2018-03-22T02:20:48.805Z,99.99
2018-03-22T02:21:48.677Z,99.99
2018-03-22T02:22:48.528Z,99.99
2018-03-22T02:23:48.390Z,99.99
2018-03-22T02:24:48.252Z,99.99
2018-03-22T02:25:48.108Z,99.99
2018-03-22T02:26:47.972Z,99.99
2018-03-22T02:27:47.827Z,99.99
2018-03-22T02:28:47.688Z,99.99
2018-03-22T02:29:47.553Z,99.99
2018-03-22T02:30:47.411Z,99.99
2018-03-22T02:31:47.269Z,99.99
2018-03-22T02:32:47.126Z,99.99
2018-03-22T02:33:46.988Z,99.99
2018-03-22T02:34:46.849Z,99.99
2018-03-22T02:35:46.708Z,99.99
2018-03-22T02:36:46.574Z,99.99
2018-03-22T02:37:46.429Z,99.99
2018-03-22T02:38:46.286Z,99.99
2018-03-22T02:39:46.148Z,99.99
2018-03-22T02:40:46.008Z,99.99
2018-03-22T02:41:45.866Z,99.99
2018-03-22T02:42:45.795Z,99.99
2018-03-22T02:43:45.588Z,99.99
2018-03-22T02:44:45.448Z,99.99
2018-03-22T02:45:45.306Z,99.99
2018-03-22T02:46:45.169Z,99.99
2018-03-22T02:47:45.030Z,99.99
2018-03-22T02:48:44.886Z,99.99
2018-03-22T02:49:44.743Z,99.99
2018-03-22T02:50:44.606Z,99.99
2018-03-22T02:51:44.466Z,99.99
2018-03-22T02:52:44.328Z,99.99
2018-03-22T02:53:44.187Z,99.99
2018-03-22T02:54:44.054Z,99.99
2018-03-22T02:55:43.905Z,99.99
2018-03-22T02:56:43.773Z,99.99
2018-03-22T02:57:43.626Z,99.99
2018-03-22T02:58:43.488Z,99.99
2018-03-22T02:59:43.344Z,99.99
2018-03-22T03:00:43.207Z,99.99
2018-03-22T03:01:43.066Z,99.99
2018-03-22T03:02:42.926Z,99.99
2018-03-22T03:03:42.787Z,99.99
2018-03-22T03:04:42.646Z,99.99
2018-03-22T03:05:42.510Z,99.99
2018-03-22T03:06:42.366Z,99.99
2018-03-22T03:07:42.223Z,99.99
2018-03-22T03:08:42.083Z,99.99
2018-03-22T03:09:41.942Z,99.99
2018-03-22T03:10:41.808Z,99.99
2018-03-22T03:11:41.670Z,99.99
2018-03-22T03:12:41.521Z,99.99
2018-03-22T03:13:41.380Z,99.99
2018-03-22T03:14:41.241Z,99.99
2018-03-22T03:15:41.101Z,99.99
2018-03-22T03:16:40.960Z,99.99
2018-03-22T03:17:40.822Z,99.99
2018-03-22T03:18:40.680Z,99.99
2018-03-22T03:19:40.542Z,99.99
2018-03-22T03:20:40.400Z,99.99
2018-03-22T03:21:40.264Z,99.99
2018-03-22T03:22:40.114Z,99.99
2018-03-22T03:23:39.976Z,99.99
2018-03-22T03:24:39.834Z,99.99
2018-03-22T03:25:39.696Z,99.99
2018-03-22T03:26:39.554Z,99.99
2018-03-22T03:27:39.415Z,99.99
2018-03-22T03:28:39.273Z,99.99
2018-03-22T03:29:39.135Z,99.99
2018-03-22T03:30:38.993Z,99.99
2018-03-22T03:31:38.855Z,99.99
2018-03-22T03:32:38.711Z,99.99
2018-03-22T03:33:38.572Z,99.99
2018-03-22T03:34:38.427Z,99.99
2018-03-22T03:35:38.290Z,99.99
2018-03-22T03:36:38.154Z,99.99
2018-03-22T03:37:38.009Z,99.99
2018-03-22T03:38:37.867Z,99.99
2018-03-22T03:39:37.729Z,99.99
2018-03-22T03:40:37.587Z,99.99
2018-03-22T03:41:37.445Z,99.99
2018-03-22T03:42:37.307Z,99.99
2018-03-22T03:43:37.168Z,99.99
2018-03-22T03:44:37.022Z,99.99
2018-03-22T03:45:36.885Z,99.99
2018-03-22T03:46:36.747Z,99.99
2018-03-22T03:47:36.600Z,99.99
2018-03-22T03:48:36.463Z,99.99
2018-03-22T03:49:36.320Z,99.99
2018-03-22T03:50:36.181Z,99.99
2018-03-22T03:51:36.041Z,99.99
2018-03-22T03:52:35.901Z,99.99
2018-03-22T03:53:35.763Z,99.99
2018-03-22T03:54:35.618Z,99.99
2018-03-22T03:55:35.479Z,99.99
2018-03-22T03:56:35.338Z,99.99
2018-03-22T03:57:35.199Z,99.99
2018-03-22T03:58:35.058Z,99.99
2018-03-22T03:59:34.920Z,99.99
2018-03-22T04:00:34.778Z,99.99
2018-03-22T04:01:34.636Z,99.99
2018-03-22T04:02:34.496Z,99.99
2018-03-22T04:03:34.356Z,99.99
2018-03-22T04:04:34.215Z,99.99
2018-03-22T04:05:34.075Z,99.99
2018-03-22T04:06:33.935Z,99.99
2018-03-22T04:07:33.794Z,99.99
2018-03-22T04:08:33.656Z,99.99
2018-03-22T04:09:33.517Z,99.99
2018-03-22T04:10:33.374Z,99.99
2018-03-22T04:11:33.234Z,99.99
2018-03-22T04:12:33.091Z,99.99
2018-03-22T04:13:32.950Z,99.99
2018-03-22T04:14:32.814Z,99.99
2018-03-22T04:15:32.670Z,99.99
2018-03-22T04:16:32.535Z,99.99
2018-03-22T04:17:32.394Z,99.99
2018-03-22T04:18:32.249Z,99.99
2018-03-22T04:19:32.110Z,99.99
2018-03-22T04:20:31.969Z,99.99
2018-03-22T04:21:31.827Z,99.99
2018-03-22T04:22:31.687Z,99.99
2018-03-22T04:23:31.549Z,99.99
2018-03-22T04:24:31.408Z,99.99
2018-03-22T04:25:31.264Z,99.99
2018-03-22T04:26:31.126Z,99.99
2018-03-22T04:27:30.985Z,99.99
2018-03-22T04:28:30.841Z,99.99
2018-03-22T04:29:30.702Z,99.99
2018-03-22T04:30:30.564Z,99.99
2018-03-22T04:31:30.420Z,99.99
2018-03-22T04:32:30.280Z,99.99
2018-03-22T04:33:30.140Z,99.99
2018-03-22T04:34:29.999Z,99.99
2018-03-22T04:35:29.861Z,99.99
2018-03-22T04:36:29.718Z,99.99
2018-03-22T04:37:29.576Z,99.99
2018-03-22T04:38:29.436Z,99.99
2018-03-22T04:39:29.303Z,99.99
2018-03-22T04:40:29.169Z,99.99
2018-03-22T04:41:29.016Z,99.99
2018-03-22T04:42:28.875Z,99.99
2018-03-22T04:43:28.734Z,99.99
2018-03-22T04:44:28.594Z,99.99
2018-03-22T04:45:28.457Z,99.99
2018-03-22T04:46:28.313Z,99.99
2018-03-22T04:47:28.175Z,99.99
2018-03-22T04:48:28.033Z,99.99
2018-03-22T04:49:27.908Z,99.99
2018-03-22T04:50:27.751Z,99.99
2018-03-22T04:51:27.610Z,99.99
2018-03-22T04:52:27.472Z,99.99
2018-03-22T04:53:27.332Z,99.99
2018-03-22T04:54:27.190Z,99.99
2018-03-22T04:55:27.054Z,99.99
2018-03-22T04:56:26.910Z,99.99
2018-03-22T04:57:26.770Z,99.99
2018-03-22T04:58:26.630Z,99.99
2018-03-22T04:59:26.493Z,99.99
2018-03-22T05:00:26.344Z,99.99
2018-03-22T05:01:26.206Z,99.99
2018-03-22T05:02:26.064Z,99.99
2018-03-22T05:03:25.924Z,99.99
2018-03-22T05:04:25.784Z,99.99
2018-03-22T05:05:25.652Z,99.99
2018-03-22T05:06:25.503Z,99.99
2018-03-22T05:07:25.361Z,99.99
2018-03-22T05:08:25.229Z,99.99
2018-03-22T05:09:25.078Z,99.99
2018-03-22T05:10:24.941Z,99.99
2018-03-22T05:11:24.799Z,99.99
2018-03-22T05:12:24.658Z,99.99
2018-03-22T05:13:24.514Z,99.99
2018-03-22T05:14:24.376Z,99.99
2018-03-22T05:15:24.234Z,99.99
2018-03-22T05:16:24.094Z,99.99
2018-03-22T05:17:23.955Z,99.99
2018-03-22T05:18:23.815Z,99.99
2018-03-22T05:19:23.670Z,99.99
2018-03-22T05:20:23.534Z,99.99
2018-03-22T05:21:23.393Z,99.99
2018-03-22T05:22:23.253Z,99.99
2018-03-22T05:23:23.115Z,99.99
2018-03-22T05:24:22.974Z,99.99
2018-03-22T05:25:22.829Z,99.99
2018-03-22T05:26:22.692Z,99.99
2018-03-22T05:27:22.550Z,99.99
2018-03-22T05:28:22.410Z,99.99
2018-03-22T05:29:22.270Z,99.99
2018-03-22T05:30:22.222Z,99.99
2018-03-22T05:31:22.506Z,99.99
2018-03-22T05:32:21.846Z,99.99
2018-03-22T05:33:21.707Z,99.99
2018-03-22T05:34:21.590Z,99.99
2018-03-22T05:35:22.037Z,99.99
2018-03-22T05:36:21.287Z,99.99
2018-03-22T05:37:21.147Z,99.99
2018-03-22T05:38:21.005Z,99.99
2018-03-22T05:39:20.868Z,99.99
2018-03-22T05:40:20.728Z,99.99
2018-03-22T05:41:20.587Z,99.99
2018-03-22T05:42:20.448Z,99.99
2018-03-22T05:43:20.302Z,99.99
2018-03-22T05:44:20.163Z,99.99
2018-03-22T05:45:20.022Z,99.99
2018-03-22T05:46:19.883Z,99.99
2018-03-22T05:47:19.745Z,99.99
2018-03-22T05:48:19.606Z,99.99
2018-03-22T05:49:19.466Z,99.99
2018-03-22T05:50:19.331Z,99.99
2018-03-22T05:51:19.183Z,99.99
2018-03-22T05:52:19.042Z,99.99
2018-03-22T05:53:18.902Z,99.99
2018-03-22T05:54:18.764Z,99.99
2018-03-22T05:55:18.623Z,99.99
2018-03-22T05:56:18.481Z,99.99
2018-03-22T05:57:18.340Z,99.99
2018-03-22T05:58:18.214Z,99.99
2018-03-22T05:59:18.062Z,99.99
2018-03-22T06:00:17.927Z,99.99
2018-03-22T06:01:17.790Z,99.99
2018-03-22T06:02:17.693Z,99.99
2018-03-22T06:03:17.501Z,99.99
2018-03-22T06:04:17.363Z,99.99
2018-03-22T06:05:17.233Z,99.99
2018-03-22T06:06:17.081Z,99.99
2018-03-22T06:07:17.075Z,99.99
2018-03-22T06:08:16.799Z,99.99
2018-03-22T06:09:16.662Z,99.99
2018-03-22T06:10:16.522Z,99.99
2018-03-22T06:11:16.397Z,99.99
2018-03-22T06:12:16.303Z,99.99
2018-03-22T06:13:16.101Z,99.99
2018-03-22T06:14:15.963Z,99.99
2018-03-22T06:15:16.200Z,99.99
2018-03-22T06:16:15.683Z,99.99
2018-03-22T06:17:15.543Z,99.99
2018-03-22T06:18:15.408Z,99.99
2018-03-22T06:19:15.280Z,99.99
2018-03-22T06:20:15.120Z,99.99
2018-03-22T06:21:15.122Z,99.99
2018-03-22T06:22:14.842Z,99.99
2018-03-22T06:23:14.703Z,99.99
2018-03-22T06:24:14.560Z,99.99
2018-03-22T06:25:14.424Z,99.99
2018-03-22T06:26:14.284Z,99.99
2018-03-22T06:27:14.144Z,99.99
2018-03-22T06:28:14.132Z,99.99
2018-03-22T06:29:13.866Z,99.99
2018-03-22T06:30:13.730Z,99.99
2018-03-22T06:31:13.588Z,99.99
2018-03-22T06:32:13.444Z,99.99
2018-03-22T06:33:13.306Z,99.99
2018-03-22T06:34:13.167Z,99.99
2018-03-22T06:35:13.033Z,99.99
2018-03-22T06:36:12.889Z,99.99
2018-03-22T06:37:12.745Z,99.99
2018-03-22T06:38:12.607Z,99.99
2018-03-22T06:39:12.468Z,99.99
2018-03-22T06:40:12.326Z,99.99
2018-03-22T06:41:12.190Z,99.99
2018-03-22T06:42:12.049Z,99.99
2018-03-22T06:43:11.911Z,99.99
2018-03-22T06:44:11.790Z,99.99
2018-03-22T06:45:11.631Z,99.99
2018-03-22T06:46:11.491Z,99.99
2018-03-22T06:47:11.357Z,99.99
2018-03-22T06:48:11.217Z,99.87
2018-03-22T06:49:11.079Z,98.93
2018-03-22T06:50:10.938Z,97.42
2018-03-22T06:51:10.798Z,98.08
2018-03-22T06:52:10.659Z,97.61
2018-03-22T06:53:10.535Z,96.77
2018-03-22T06:54:10.384Z,90.73
2018-03-22T06:55:10.244Z,88.47
2018-03-22T06:56:10.107Z,91.39
2018-03-22T06:57:09.970Z,95.64
2018-03-22T06:58:09.832Z,98.46
2018-03-22T06:59:09.693Z,99.99
2018-03-22T07:00:09.553Z,99.99
2018-03-22T07:01:09.416Z,99.99
2018-03-22T07:02:09.278Z,99.99
2018-03-22T07:03:09.143Z,99.99
2018-03-22T07:04:09.004Z,99.99
2018-03-22T07:05:08.864Z,97.94
2018-03-22T07:06:08.728Z,91.35
2018-03-22T07:07:08.595Z,88.23
2018-03-22T07:08:08.455Z,88.61
2018-03-22T07:09:08.315Z,93.23
2018-03-22T07:10:08.179Z,91.91
2018-03-22T07:11:08.043Z,82.20
2018-03-22T07:12:07.904Z,83.24
2018-03-22T07:13:07.771Z,86.44
2018-03-22T07:14:07.631Z,86.82
2018-03-22T07:15:07.496Z,81.26
2018-03-22T07:16:07.361Z,83.80
2018-03-22T07:17:07.222Z,84.09
2018-03-22T07:18:07.087Z,85.88
2018-03-22T07:19:06.951Z,86.91
2018-03-22T07:20:06.819Z,89.56
2018-03-22T07:21:06.679Z,88.52
2018-03-22T07:22:06.545Z,85.50
2018-03-22T07:23:06.406Z,82.39
2018-03-22T07:24:06.269Z,81.82
2018-03-22T07:25:06.132Z,79.85
2018-03-22T07:26:05.997Z,81.54
2018-03-22T07:27:05.865Z,81.30
2018-03-22T07:28:05.724Z,79.79
2018-03-22T07:29:05.588Z,78.94
2018-03-22T07:30:05.453Z,78.75
2018-03-22T07:31:05.317Z,76.87
2018-03-22T07:32:05.181Z,75.54
2018-03-22T07:33:05.047Z,73.66
2018-03-22T07:34:04.910Z,74.98
2018-03-22T07:35:04.779Z,73.47
2018-03-22T07:36:04.645Z,71.68
2018-03-22T07:37:04.506Z,70.64
2018-03-22T07:38:04.388Z,72.53
2018-03-22T07:39:04.240Z,72.44
2018-03-22T07:40:04.099Z,71.30
2018-03-22T07:41:03.970Z,71.11
2018-03-22T07:42:03.829Z,69.54
2018-03-22T07:43:03.697Z,69.17
2018-03-22T07:44:03.561Z,68.88
2018-03-22T07:45:03.425Z,69.26
2018-03-22T07:46:03.290Z,69.64
2018-03-22T07:47:03.158Z,69.60
2018-03-22T07:48:03.023Z,70.92
2018-03-22T07:49:02.889Z,71.06
2018-03-22T07:50:02.757Z,73.13
2018-03-22T07:51:02.619Z,72.00
2018-03-22T07:52:02.486Z,72.19
2018-03-22T07:53:02.352Z,73.03
2018-03-22T07:54:02.217Z,73.32
2018-03-22T07:55:02.088Z,74.45
2018-03-22T07:56:01.951Z,72.66
2018-03-22T07:57:01.814Z,70.96
2018-03-22T07:58:01.682Z,71.06
2018-03-22T07:59:01.608Z,69.92
2018-03-22T08:00:01.414Z,72.00
2018-03-22T08:01:01.281Z,73.32
2018-03-22T08:02:01.147Z,73.22
2018-03-22T08:03:01.016Z,72.47
2018-03-22T08:04:00.881Z,74.55
2018-03-22T08:05:00.745Z,73.41
2018-03-22T08:06:00.619Z,71.43
2018-03-22T08:07:00.480Z,72.38
2018-03-22T08:08:00.344Z,72.66
2018-03-22T08:09:00.212Z,72.56
2018-03-22T08:10:00.080Z,72.66
2018-03-22T08:10:59.946Z,72.47
2018-03-22T08:11:59.811Z,72.66
2018-03-22T08:12:59.685Z,73.88
2018-03-22T08:13:59.544Z,74.17
2018-03-22T08:14:59.416Z,73.22
2018-03-22T08:15:59.278Z,70.02
2018-03-22T08:16:59.150Z,68.88
2018-03-22T08:17:59.013Z,68.88
2018-03-22T08:18:58.888Z,68.63
2018-03-22T08:19:58.748Z,68.44
2018-03-22T08:20:58.615Z,67.60
2018-03-22T08:21:58.480Z,67.69
2018-03-22T08:22:58.347Z,70.15
2018-03-22T08:23:58.214Z,71.19
2018-03-22T08:24:58.083Z,70.90
2018-03-22T08:25:57.949Z,70.43
2018-03-22T08:26:57.818Z,70.24
2018-03-22T08:27:57.687Z,69.20
2018-03-22T08:28:57.552Z,70.43
2018-03-22T08:29:57.421Z,69.30
2018-03-22T08:30:57.287Z,69.96
2018-03-22T08:31:57.154Z,67.97
2018-03-22T08:32:57.024Z,67.50
2018-03-22T08:33:56.891Z,68.63
2018-03-22T08:34:56.758Z,67.69
2018-03-22T08:35:56.627Z,67.79
2018-03-22T08:36:56.501Z,67.88
2018-03-22T08:37:56.364Z,69.20
2018-03-22T08:38:56.231Z,68.26
2018-03-22T08:39:56.099Z,68.73
2018-03-22T08:40:55.968Z,68.35
2018-03-22T08:41:55.832Z,67.69
2018-03-22T08:42:55.703Z,67.69
2018-03-22T08:43:55.570Z,68.39
2018-03-22T08:44:55.440Z,67.25
2018-03-22T08:45:55.308Z,67.35
2018-03-22T08:46:55.178Z,67.07
2018-03-22T08:47:55.043Z,65.84
2018-03-22T08:48:54.915Z,67.35
2018-03-22T08:49:54.787Z,67.16
2018-03-22T08:50:54.655Z,67.44
2018-03-22T08:51:54.529Z,67.72
2018-03-22T08:52:54.388Z,67.57
2018-03-22T08:53:54.268Z,66.31
2018-03-22T08:54:54.126Z,65.55
2018-03-22T08:55:53.998Z,66.03
2018-03-22T08:56:53.861Z,65.36
2018-03-22T08:57:53.735Z,64.98
2018-03-22T08:58:53.608Z,65.97
2018-03-22T08:59:53.470Z,63.89
2018-03-22T09:00:53.338Z,64.26
2018-03-22T09:01:53.208Z,63.89
2018-03-22T09:02:53.075Z,62.85
2018-03-22T09:03:52.946Z,62.47
2018-03-22T09:04:52.817Z,63.51
2018-03-22T09:05:52.686Z,63.60
2018-03-22T09:06:52.555Z,63.51
2018-03-22T09:07:52.424Z,62.56
2018-03-22T09:08:52.297Z,63.13
2018-03-22T09:09:52.165Z,62.53
2018-03-22T09:10:52.061Z,63.79
2018-03-22T09:11:51.902Z,63.60
2018-03-22T09:12:51.770Z,63.60
2018-03-22T09:13:51.642Z,64.17
2018-03-22T09:14:51.512Z,64.64
2018-03-22T09:15:51.379Z,63.89
2018-03-22T09:16:51.248Z,63.42
2018-03-22T09:17:51.119Z,63.98
2018-03-22T09:18:50.990Z,62.94
2018-03-22T09:19:50.860Z,63.89
2018-03-22T09:20:50.728Z,62.94
2018-03-22T09:21:50.598Z,63.32
2018-03-22T09:22:50.468Z,62.09
2018-03-22T09:23:50.336Z,62.69
2018-03-22T09:24:50.208Z,62.50
2018-03-22T09:25:50.080Z,62.97
2018-03-22T09:26:49.950Z,62.78
2018-03-22T09:27:49.853Z,62.31
2018-03-22T09:28:49.690Z,61.65
2018-03-22T09:29:49.557Z,60.26
2018-03-22T09:30:49.425Z,58.44
2018-03-22T09:31:49.299Z,59.31
2018-03-22T09:32:49.171Z,58.34
2018-03-22T09:33:49.038Z,58.25
2018-03-22T09:34:48.928Z,58.34
2018-03-22T09:35:48.782Z,58.81
2018-03-22T09:36:48.657Z,59.00
2018-03-22T09:37:48.525Z,59.38
2018-03-22T09:38:48.394Z,60.26
2018-03-22T09:39:48.266Z,59.28
2018-03-22T09:40:48.138Z,59.47
2018-03-22T09:41:48.042Z,59.88
2018-03-22T09:42:47.878Z,58.65
2018-03-22T09:43:47.748Z,59.00
2018-03-22T09:44:47.625Z,60.83
2018-03-22T09:45:47.491Z,60.45
2018-03-22T09:46:47.363Z,60.45
2018-03-22T09:47:47.230Z,60.83
2018-03-22T09:48:47.114Z,59.60
2018-03-22T09:49:46.974Z,58.75
2018-03-22T09:50:46.849Z,59.60
2018-03-22T09:51:46.716Z,60.17
2018-03-22T09:52:46.589Z,59.12
2018-03-22T09:53:46.461Z,59.16
2018-03-22T09:54:46.332Z,58.40
2018-03-22T09:55:46.203Z,58.78
2018-03-22T09:56:46.075Z,58.49
2018-03-22T09:57:45.947Z,58.18
2018-03-22T09:58:45.815Z,58.28
2018-03-22T09:59:45.688Z,58.56
2018-03-22T10:00:45.565Z,59.16
2018-03-22T10:01:45.432Z,59.06
2018-03-22T10:02:45.303Z,58.65
2018-03-22T10:03:45.175Z,58.65
2018-03-22T10:04:45.050Z,59.98
2018-03-22T10:05:44.915Z,60.55
2018-03-22T10:06:44.790Z,60.93
2018-03-22T10:07:44.659Z,61.77
2018-03-22T10:08:44.531Z,62.15
2018-03-22T10:09:44.406Z,61.58
2018-03-22T10:10:44.271Z,61.68
2018-03-22T10:11:44.143Z,60.07
2018-03-22T10:12:44.015Z,59.22
2018-03-22T10:13:43.897Z,60.74
2018-03-22T10:14:43.754Z,62.09
2018-03-22T10:15:43.629Z,61.33
2018-03-22T10:16:43.496Z,60.29
2018-03-22T10:17:43.369Z,58.40
2018-03-22T10:18:43.243Z,57.52
2018-03-22T10:19:43.114Z,57.99
2018-03-22T10:20:42.985Z,59.12
2018-03-22T10:21:42.869Z,59.03
2018-03-22T10:22:42.729Z,61.58
2018-03-22T10:23:42.602Z,59.66
2018-03-22T10:24:42.471Z,59.12
2018-03-22T10:25:42.345Z,60.17
2018-03-22T10:26:42.225Z,60.00
2018-03-22T10:27:42.168Z,58.59
2018-03-22T10:28:41.961Z,58.30
2018-03-22T10:29:41.831Z,58.24
2018-03-22T10:30:41.701Z,56.34
2018-03-22T10:31:41.574Z,54.76
2018-03-22T10:32:41.446Z,54.28
2018-03-22T10:33:41.318Z,54.10
2018-03-22T10:34:41.191Z,53.31
2018-03-22T10:35:41.060Z,54.26
2018-03-22T10:36:40.934Z,54.35
2018-03-22T10:37:40.807Z,54.16
2018-03-22T10:38:40.683Z,54.64
2018-03-22T10:39:40.553Z,54.67
2018-03-22T10:40:40.426Z,54.10
2018-03-22T10:41:40.298Z,53.25
2018-03-22T10:42:40.173Z,52.11
2018-03-22T10:43:40.042Z,51.80
2018-03-22T10:44:39.913Z,52.11
2018-03-22T10:45:39.789Z,50.95
2018-03-22T10:46:39.662Z,50.28
2018-03-22T10:47:39.537Z,49.84
2018-03-22T10:48:39.403Z,49.74
2018-03-22T10:49:39.287Z,48.86
2018-03-22T10:50:39.150Z,49.71
2018-03-22T10:51:39.025Z,48.58
2018-03-22T10:52:38.895Z,49.81
2018-03-22T10:53:38.768Z,49.98
2018-03-22T10:54:38.644Z,51.58
2018-03-22T10:55:38.513Z,52.27
2018-03-22T10:56:38.385Z,51.32
2018-03-22T10:57:38.262Z,52.08
2018-03-22T10:58:38.132Z,51.07
2018-03-22T10:59:38.003Z,49.65
2018-03-22T11:00:37.877Z,49.17
2018-03-22T11:01:37.744Z,49.08
2018-03-22T11:02:37.621Z,49.15
2018-03-22T11:03:37.490Z,49.52
2018-03-22T11:04:37.364Z,49.71
2018-03-22T11:05:37.244Z,50.19
2018-03-22T11:06:37.109Z,50.85
2018-03-22T11:07:36.982Z,49.74
2018-03-22T11:08:36.854Z,48.60
2018-03-22T11:09:36.729Z,49.55
2018-03-22T11:10:36.600Z,48.89
2018-03-22T11:11:36.470Z,47.09
2018-03-22T11:12:36.343Z,46.52
2018-03-22T11:13:36.217Z,46.42
2018-03-22T11:14:36.091Z,47.09
2018-03-22T11:15:35.959Z,48.22
2018-03-22T11:16:35.839Z,47.87
2018-03-22T11:17:35.708Z,46.35
2018-03-22T11:18:35.581Z,45.86
2018-03-22T11:19:35.453Z,46.92
2018-03-22T11:20:35.326Z,45.97
2018-03-22T11:21:35.202Z,45.52
2018-03-22T11:22:35.074Z,45.52
2018-03-22T11:23:34.951Z,43.05
2018-03-22T11:24:34.822Z,42.20
2018-03-22T11:25:34.694Z,43.05
2018-03-22T11:26:34.567Z,43.72
2018-03-22T11:27:34.441Z,44.67
2018-03-22T11:28:34.316Z,43.23
2018-03-22T11:29:34.190Z,43.68
2018-03-22T11:30:34.064Z,44.84
2018-03-22T11:31:33.937Z,46.07
2018-03-22T11:32:33.814Z,48.56
2018-03-22T11:33:33.692Z,48.94
2018-03-22T11:34:33.561Z,48.86
2018-03-22T11:35:33.435Z,46.59
2018-03-22T11:36:33.310Z,44.21
2018-03-22T11:37:33.185Z,44.60
2018-03-22T11:38:33.060Z,44.95
2018-03-22T11:39:32.933Z,46.09
2018-03-22T11:40:32.809Z,47.80
2018-03-22T11:41:32.685Z,46.59
2018-03-22T11:42:32.559Z,46.21
2018-03-22T11:43:32.433Z,45.64
2018-03-22T11:44:32.310Z,44.79
2018-03-22T11:45:32.187Z,44.60
2018-03-22T11:46:32.059Z,45.54
2018-03-22T11:47:31.940Z,45.14
2018-03-22T11:48:31.812Z,45.54
2018-03-22T11:49:31.685Z,45.52
2018-03-22T11:50:31.561Z,46.28
2018-03-22T11:51:31.434Z,46.28
2018-03-22T11:52:31.310Z,46.97
2018-03-22T11:53:31.183Z,46.80
2018-03-22T11:54:31.064Z,45.76
2018-03-22T11:55:30.935Z,45.28
2018-03-22T11:56:30.855Z,44.40
2018-03-22T11:57:30.691Z,44.10
2018-03-22T11:58:30.564Z,45.24
2018-03-22T11:59:30.437Z,46.00
2018-03-22T12:00:30.312Z,47.80
2018-03-22T12:01:30.192Z,47.99
2018-03-22T12:02:30.064Z,49.98
2018-03-22T12:03:29.936Z,48.68
2018-03-22T12:04:29.812Z,47.23
2018-03-22T12:05:29.690Z,48.36
2018-03-22T12:06:29.570Z,48.44
2018-03-22T12:07:29.440Z,49.76
2018-03-22T12:08:29.321Z,50.99
2018-03-22T12:09:29.189Z,50.64
2018-03-22T12:10:29.064Z,51.68
2018-03-22T12:11:28.941Z,51.50
2018-03-22T12:12:28.832Z,51.68
2018-03-22T12:13:28.697Z,51.90
2018-03-22T12:14:28.569Z,51.43
2018-03-22T12:15:28.445Z,51.05
2018-03-22T12:16:28.319Z,49.88
2018-03-22T12:17:28.193Z,52.54
2018-03-22T12:18:28.071Z,52.73
2018-03-22T12:19:28.003Z,52.47
2018-03-22T12:20:27.822Z,51.43
2018-03-22T12:21:27.696Z,50.01
2018-03-22T12:22:27.574Z,48.20
2018-03-22T12:23:27.459Z,49.53
2018-03-22T12:24:27.341Z,49.41
2018-03-22T12:25:27.199Z,50.10
2018-03-22T12:26:27.075Z,50.10
2018-03-22T12:27:26.951Z,50.07
2018-03-22T12:28:26.829Z,49.69
2018-03-22T12:29:26.700Z,48.82
2018-03-22T12:30:26.576Z,49.38
2018-03-22T12:31:26.448Z,49.76
2018-03-22T12:32:26.350Z,50.07
2018-03-22T12:33:26.204Z,49.24
2018-03-22T12:34:26.077Z,48.11
2018-03-22T12:35:25.949Z,48.39
2018-03-22T12:36:25.833Z,48.58
2018-03-22T12:37:25.699Z,48.70
2018-03-22T12:38:25.573Z,48.13
2018-03-22T12:39:25.447Z,48.03
2018-03-22T12:40:25.322Z,48.11
2018-03-22T12:41:25.203Z,46.45
2018-03-22T12:42:25.074Z,46.45
2018-03-22T12:43:25.026Z,48.06
2018-03-22T12:44:24.821Z,50.99
2018-03-22T12:45:24.698Z,52.64
2018-03-22T12:46:24.576Z,52.35
2018-03-22T12:47:24.447Z,51.31
2018-03-22T12:48:24.321Z,51.14
2018-03-22T12:49:24.195Z,49.53
2018-03-22T12:50:24.069Z,48.58